sensor_id;sensor_type;location;lat;lon;timestamp;temperature;humidity
10306;DHT22;5198;52.382;9.020;2023-05-07T00:01:40;12.70;99.90
10306;DHT22;5198;52.382;9.020;2023-05-07T00:05:43;12.70;99.90
10306;DHT22;5198;52.382;9.020;2023-05-07T00:09:46;12.60;99.90
10306;DHT22;5198;52.382;9.020;2023-05-07T00:13:50;12.60;99.90
10306;DHT22;5198;52.382;9.020;2023-05-07T00:17:53;12.60;99.90
10306;DHT22;5198;52.382;9.020;2023-05-07T00:21:56;12.60;99.90
10306;DHT22;5198;52.382;9.020;2023-05-07T00:25:59;12.50;99.90
10306;DHT22;5198;52.382;9.020;2023-05-07T00:30:04;12.50;99.90
10306;DHT22;5198;52.382;9.020;2023-05-07T00:34:07;12.50;99.90
10306;DHT22;5198;52.382;9.020;2023-05-07T00:38:10;12.40;99.90
10306;DHT22;5198;52.382;9.020;2023-05-07T00:42:13;12.40;99.90
10306;DHT22;5198;52.382;9.020;2023-05-07T00:46:17;12.40;99.90
10306;DHT22;5198;52.382;9.020;2023-05-07T00:50:22;12.40;99.90
10306;DHT22;5198;52.382;9.020;2023-05-07T00:54:25;12.30;99.90
10306;DHT22;5198;52.382;9.020;2023-05-07T00:58:28;12.30;99.90
10306;DHT22;5198;52.382;9.020;2023-05-07T01:02:32;12.30;99.90
10306;DHT22;5198;52.382;9.020;2023-05-07T01:06:35;12.20;99.90
10306;DHT22;5198;52.382;9.020;2023-05-07T01:10:38;12.20;99.90
10306;DHT22;5198;52.382;9.020;2023-05-07T01:14:44;12.20;99.90
10306;DHT22;5198;52.382;9.020;2023-05-07T01:18:48;12.20;99.90
10306;DHT22;5198;52.382;9.020;2023-05-07T01:22:53;12.10;99.90
10306;DHT22;5198;52.382;9.020;2023-05-07T01:26:57;12.10;99.90
10306;DHT22;5198;52.382;9.020;2023-05-07T01:31:01;12.10;99.90
10306;DHT22;5198;52.382;9.020;2023-05-07T01:35:06;12.00;99.90
10306;DHT22;5198;52.382;9.020;2023-05-07T01:39:11;12.00;99.90
10306;DHT22;5198;52.382;9.020;2023-05-07T01:43:14;12.00;99.90
10306;DHT22;5198;52.382;9.020;2023-05-07T01:47:17;11.90;99.90
10306;DHT22;5198;52.382;9.020;2023-05-07T01:51:20;11.90;99.90
10306;DHT22;5198;52.382;9.020;2023-05-07T01:55:25;11.90;99.90
10306;DHT22;5198;52.382;9.020;2023-05-07T01:59:27;11.90;99.90
10306;DHT22;5198;52.382;9.020;2023-05-07T02:03:30;11.90;99.90
10306;DHT22;5198;52.382;9.020;2023-05-07T02:07:33;11.80;99.90
10306;DHT22;5198;52.382;9.020;2023-05-07T02:11:38;11.80;99.90
10306;DHT22;5198;52.382;9.020;2023-05-07T02:15:41;11.80;99.90
10306;DHT22;5198;52.382;9.020;2023-05-07T02:19:44;11.80;99.90
10306;DHT22;5198;52.382;9.020;2023-05-07T02:23:47;11.80;99.90
10306;DHT22;5198;52.382;9.020;2023-05-07T02:27:51;11.80;99.90
10306;DHT22;5198;52.382;9.020;2023-05-07T02:31:54;11.80;99.90
10306;DHT22;5198;52.382;9.020;2023-05-07T02:35:57;11.70;99.90
10306;DHT22;5198;52.382;9.020;2023-05-07T02:40:00;11.70;99.90
10306;DHT22;5198;52.382;9.020;2023-05-07T02:44:04;11.70;99.90
10306;DHT22;5198;52.382;9.020;2023-05-07T02:48:07;11.70;99.90
10306;DHT22;5198;52.382;9.020;2023-05-07T02:52:10;11.70;99.90
10306;DHT22;5198;52.382;9.020;2023-05-07T02:56:12;11.70;99.90
10306;DHT22;5198;52.382;9.020;2023-05-07T03:00:17;11.70;99.90
10306;DHT22;5198;52.382;9.020;2023-05-07T03:04:21;11.70;99.90
10306;DHT22;5198;52.382;9.020;2023-05-07T03:08:23;11.60;99.90
10306;DHT22;5198;52.382;9.020;2023-05-07T03:12:26;11.60;99.90
10306;DHT22;5198;52.382;9.020;2023-05-07T03:16:30;11.60;99.90
10306;DHT22;5198;52.382;9.020;2023-05-07T03:20:33;11.60;99.90
10306;DHT22;5198;52.382;9.020;2023-05-07T03:24:38;11.60;99.90
10306;DHT22;5198;52.382;9.020;2023-05-07T03:28:40;11.60;99.90
10306;DHT22;5198;52.382;9.020;2023-05-07T03:32:45;11.60;99.90
10306;DHT22;5198;52.382;9.020;2023-05-07T03:36:47;11.60;99.90
10306;DHT22;5198;52.382;9.020;2023-05-07T03:40:50;11.50;99.90
10306;DHT22;5198;52.382;9.020;2023-05-07T03:44:53;11.50;99.90
10306;DHT22;5198;52.382;9.020;2023-05-07T03:48:57;11.50;99.90
10306;DHT22;5198;52.382;9.020;2023-05-07T03:53:00;11.50;99.90
10306;DHT22;5198;52.382;9.020;2023-05-07T03:57:03;11.50;99.90
10306;DHT22;5198;52.382;9.020;2023-05-07T04:01:06;11.50;99.90
10306;DHT22;5198;52.382;9.020;2023-05-07T04:05:10;11.50;99.90
10306;DHT22;5198;52.382;9.020;2023-05-07T04:09:13;11.50;99.90
10306;DHT22;5198;52.382;9.020;2023-05-07T04:13:16;11.40;99.90
10306;DHT22;5198;52.382;9.020;2023-05-07T04:17:19;11.40;99.90
10306;DHT22;5198;52.382;9.020;2023-05-07T04:21:23;11.40;99.90
10306;DHT22;5198;52.382;9.020;2023-05-07T04:25:27;11.40;99.90
10306;DHT22;5198;52.382;9.020;2023-05-07T04:29:30;11.40;99.90
10306;DHT22;5198;52.382;9.020;2023-05-07T04:33:33;11.40;99.90
10306;DHT22;5198;52.382;9.020;2023-05-07T04:37:38;11.40;99.90
10306;DHT22;5198;52.382;9.020;2023-05-07T04:41:41;11.40;99.90
10306;DHT22;5198;52.382;9.020;2023-05-07T04:45:44;11.50;99.90
10306;DHT22;5198;52.382;9.020;2023-05-07T04:49:47;11.40;99.90
10306;DHT22;5198;52.382;9.020;2023-05-07T04:53:51;11.50;99.90
10306;DHT22;5198;52.382;9.020;2023-05-07T04:57:54;11.50;99.90
10306;DHT22;5198;52.382;9.020;2023-05-07T05:01:57;11.50;99.90
10306;DHT22;5198;52.382;9.020;2023-05-07T05:06:00;11.50;99.90
10306;DHT22;5198;52.382;9.020;2023-05-07T05:10:04;11.50;99.90
10306;DHT22;5198;52.382;9.020;2023-05-07T05:14:07;11.50;99.90
10306;DHT22;5198;52.382;9.020;2023-05-07T05:18:10;11.50;99.90
10306;DHT22;5198;52.382;9.020;2023-05-07T05:22:13;11.60;99.90
10306;DHT22;5198;52.382;9.020;2023-05-07T05:26:18;11.50;99.90
10306;DHT22;5198;52.382;9.020;2023-05-07T05:30:22;11.50;99.90
10306;DHT22;5198;52.382;9.020;2023-05-07T05:34:25;11.60;99.90
10306;DHT22;5198;52.382;9.020;2023-05-07T05:38:29;11.60;99.90
10306;DHT22;5198;52.382;9.020;2023-05-07T05:42:33;11.60;99.90
10306;DHT22;5198;52.382;9.020;2023-05-07T05:46:36;11.60;99.90
10306;DHT22;5198;52.382;9.020;2023-05-07T05:50:39;11.60;99.90
10306;DHT22;5198;52.382;9.020;2023-05-07T05:54:42;11.60;99.90
10306;DHT22;5198;52.382;9.020;2023-05-07T05:58:46;11.60;99.90
10306;DHT22;5198;52.382;9.020;2023-05-07T06:02:49;11.60;99.90
10306;DHT22;5198;52.382;9.020;2023-05-07T06:06:52;11.60;99.90
10306;DHT22;5198;52.382;9.020;2023-05-07T06:10:55;11.70;99.90
10306;DHT22;5198;52.382;9.020;2023-05-07T06:14:59;11.70;99.90
10306;DHT22;5198;52.382;9.020;2023-05-07T06:19:03;11.70;99.90
10306;DHT22;5198;52.382;9.020;2023-05-07T06:23:06;11.70;99.90
10306;DHT22;5198;52.382;9.020;2023-05-07T06:27:09;11.70;99.90
10306;DHT22;5198;52.382;9.020;2023-05-07T06:31:13;11.80;99.90
10306;DHT22;5198;52.382;9.020;2023-05-07T06:35:17;11.80;99.90
10306;DHT22;5198;52.382;9.020;2023-05-07T06:39:20;11.80;99.90
10306;DHT22;5198;52.382;9.020;2023-05-07T06:43:23;11.80;99.90
10306;DHT22;5198;52.382;9.020;2023-05-07T06:47:27;11.80;99.90
10306;DHT22;5198;52.382;9.020;2023-05-07T06:51:30;11.80;99.90
10306;DHT22;5198;52.382;9.020;2023-05-07T06:55:33;11.80;99.90
10306;DHT22;5198;52.382;9.020;2023-05-07T06:59:36;11.80;99.90
10306;DHT22;5198;52.382;9.020;2023-05-07T07:03:40;11.80;99.90
10306;DHT22;5198;52.382;9.020;2023-05-07T07:07:43;11.90;99.90
10306;DHT22;5198;52.382;9.020;2023-05-07T07:11:45;11.90;99.90
10306;DHT22;5198;52.382;9.020;2023-05-07T07:15:48;11.90;99.90
10306;DHT22;5198;52.382;9.020;2023-05-07T07:19:53;12.00;99.90
10306;DHT22;5198;52.382;9.020;2023-05-07T07:23:55;12.00;99.90
10306;DHT22;5198;52.382;9.020;2023-05-07T07:27:58;12.00;99.90
10306;DHT22;5198;52.382;9.020;2023-05-07T07:32:01;12.10;99.90
10306;DHT22;5198;52.382;9.020;2023-05-07T07:36:06;12.10;99.90
10306;DHT22;5198;52.382;9.020;2023-05-07T07:40:10;12.10;99.90
10306;DHT22;5198;52.382;9.020;2023-05-07T07:44:13;12.00;99.90
10306;DHT22;5198;52.382;9.020;2023-05-07T07:48:17;12.00;99.90
10306;DHT22;5198;52.382;9.020;2023-05-07T07:52:21;12.00;99.90
10306;DHT22;5198;52.382;9.020;2023-05-07T07:56:24;12.00;99.90
10306;DHT22;5198;52.382;9.020;2023-05-07T08:00:27;12.00;99.90
10306;DHT22;5198;52.382;9.020;2023-05-07T08:04:30;12.00;99.90
10306;DHT22;5198;52.382;9.020;2023-05-07T08:08:36;12.00;99.90
10306;DHT22;5198;52.382;9.020;2023-05-07T08:12:39;12.00;99.90
10306;DHT22;5198;52.382;9.020;2023-05-07T08:16:42;12.00;99.90
10306;DHT22;5198;52.382;9.020;2023-05-07T08:20:45;12.00;99.90
10306;DHT22;5198;52.382;9.020;2023-05-07T08:24:49;12.10;99.90
10306;DHT22;5198;52.382;9.020;2023-05-07T08:28:53;12.10;99.90
10306;DHT22;5198;52.382;9.020;2023-05-07T08:32:55;12.10;99.90
10306;DHT22;5198;52.382;9.020;2023-05-07T08:36:58;12.10;99.90
10306;DHT22;5198;52.382;9.020;2023-05-07T08:41:02;12.10;99.90
10306;DHT22;5198;52.382;9.020;2023-05-07T08:45:07;12.10;99.90
10306;DHT22;5198;52.382;9.020;2023-05-07T08:49:11;12.20;99.90
10306;DHT22;5198;52.382;9.020;2023-05-07T08:53:14;12.20;99.90
10306;DHT22;5198;52.382;9.020;2023-05-07T08:57:19;12.30;99.90
10306;DHT22;5198;52.382;9.020;2023-05-07T09:01:23;12.40;99.90
10306;DHT22;5198;52.382;9.020;2023-05-07T09:05:26;12.50;99.90
10306;DHT22;5198;52.382;9.020;2023-05-07T09:09:29;12.50;99.90
10306;DHT22;5198;52.382;9.020;2023-05-07T09:13:33;12.60;99.90
10306;DHT22;5198;52.382;9.020;2023-05-07T09:17:36;12.70;99.90
10306;DHT22;5198;52.382;9.020;2023-05-07T09:21:40;12.80;99.90
10306;DHT22;5198;52.382;9.020;2023-05-07T09:25:43;12.90;99.90
10306;DHT22;5198;52.382;9.020;2023-05-07T09:29:47;13.00;99.90
10306;DHT22;5198;52.382;9.020;2023-05-07T09:33:50;13.10;99.90
10306;DHT22;5198;52.382;9.020;2023-05-07T09:37:56;13.10;99.90
10306;DHT22;5198;52.382;9.020;2023-05-07T09:41:59;13.20;99.90
10306;DHT22;5198;52.382;9.020;2023-05-07T09:46:07;13.30;99.90
10306;DHT22;5198;52.382;9.020;2023-05-07T09:50:12;13.40;99.90
10306;DHT22;5198;52.382;9.020;2023-05-07T09:54:18;13.50;99.90
10306;DHT22;5198;52.382;9.020;2023-05-07T09:58:21;13.50;99.90
10306;DHT22;5198;52.382;9.020;2023-05-07T10:02:29;13.60;99.90
10306;DHT22;5198;52.382;9.020;2023-05-07T10:06:33;13.70;99.90
10306;DHT22;5198;52.382;9.020;2023-05-07T10:10:37;13.80;99.90
10306;DHT22;5198;52.382;9.020;2023-05-07T10:14:41;13.90;99.90
10306;DHT22;5198;52.382;9.020;2023-05-07T10:18:46;14.00;99.90
10306;DHT22;5198;52.382;9.020;2023-05-07T10:22:51;14.10;99.90
10306;DHT22;5198;52.382;9.020;2023-05-07T10:26:59;14.30;99.90
10306;DHT22;5198;52.382;9.020;2023-05-07T10:31:11;14.50;99.90
10306;DHT22;5198;52.382;9.020;2023-05-07T10:35:21;14.70;99.90
10306;DHT22;5198;52.382;9.020;2023-05-07T10:39:25;14.90;99.90
10306;DHT22;5198;52.382;9.020;2023-05-07T10:43:39;15.00;99.90
10306;DHT22;5198;52.382;9.020;2023-05-07T10:48:11;15.10;99.90
10306;DHT22;5198;52.382;9.020;2023-05-07T10:52:32;15.20;99.90
10306;DHT22;5198;52.382;9.020;2023-05-07T10:56:35;15.30;99.90
10306;DHT22;5198;52.382;9.020;2023-05-07T11:00:42;15.40;99.90
10306;DHT22;5198;52.382;9.020;2023-05-07T11:05:18;15.50;99.90
10306;DHT22;5198;52.382;9.020;2023-05-07T11:09:23;15.70;99.90
10306;DHT22;5198;52.382;9.020;2023-05-07T11:13:42;15.80;99.90
10306;DHT22;5198;52.382;9.020;2023-05-07T11:17:55;15.90;99.90
10306;DHT22;5198;52.382;9.020;2023-05-07T11:21:59;16.00;99.90
10306;DHT22;5198;52.382;9.020;2023-05-07T11:26:04;16.20;99.90
10306;DHT22;5198;52.382;9.020;2023-05-07T11:30:09;16.40;99.90
10306;DHT22;5198;52.382;9.020;2023-05-07T11:34:12;16.60;99.90
10306;DHT22;5198;52.382;9.020;2023-05-07T11:38:19;16.80;99.90
10306;DHT22;5198;52.382;9.020;2023-05-07T11:42:27;17.10;99.90
10306;DHT22;5198;52.382;9.020;2023-05-07T11:46:31;17.20;99.90
10306;DHT22;5198;52.382;9.020;2023-05-07T11:50:34;17.40;99.90
10306;DHT22;5198;52.382;9.020;2023-05-07T11:54:37;17.40;99.90
10306;DHT22;5198;52.382;9.020;2023-05-07T11:58:43;17.50;99.90
10306;DHT22;5198;52.382;9.020;2023-05-07T12:02:46;17.60;99.90
10306;DHT22;5198;52.382;9.020;2023-05-07T12:06:53;17.70;99.90
10306;DHT22;5198;52.382;9.020;2023-05-07T12:10:59;17.80;99.90
10306;DHT22;5198;52.382;9.020;2023-05-07T12:15:04;17.80;99.90
10306;DHT22;5198;52.382;9.020;2023-05-07T12:19:08;17.80;99.90
10306;DHT22;5198;52.382;9.020;2023-05-07T12:23:16;17.90;99.90
10306;DHT22;5198;52.382;9.020;2023-05-07T12:27:19;17.90;99.90
10306;DHT22;5198;52.382;9.020;2023-05-07T12:31:25;17.90;99.90
10306;DHT22;5198;52.382;9.020;2023-05-07T12:35:29;17.90;99.90
10306;DHT22;5198;52.382;9.020;2023-05-07T12:39:32;18.00;99.90
10306;DHT22;5198;52.382;9.020;2023-05-07T12:43:35;18.00;99.90
10306;DHT22;5198;52.382;9.020;2023-05-07T12:47:43;18.10;99.90
10306;DHT22;5198;52.382;9.020;2023-05-07T12:51:47;18.30;99.90
10306;DHT22;5198;52.382;9.020;2023-05-07T12:55:52;18.40;99.90
10306;DHT22;5198;52.382;9.020;2023-05-07T12:59:57;18.60;99.90
10306;DHT22;5198;52.382;9.020;2023-05-07T13:04:03;18.60;99.90
10306;DHT22;5198;52.382;9.020;2023-05-07T13:08:07;18.80;99.90
10306;DHT22;5198;52.382;9.020;2023-05-07T13:12:11;18.80;99.90
10306;DHT22;5198;52.382;9.020;2023-05-07T13:16:15;18.90;99.90
10306;DHT22;5198;52.382;9.020;2023-05-07T13:20:20;18.90;99.90
10306;DHT22;5198;52.382;9.020;2023-05-07T13:24:23;19.00;99.90
10306;DHT22;5198;52.382;9.020;2023-05-07T13:28:26;19.00;99.90
10306;DHT22;5198;52.382;9.020;2023-05-07T13:32:30;19.10;99.90
10306;DHT22;5198;52.382;9.020;2023-05-07T13:36:34;19.20;99.90
10306;DHT22;5198;52.382;9.020;2023-05-07T13:40:39;19.20;99.90
10306;DHT22;5198;52.382;9.020;2023-05-07T13:44:42;19.20;99.90
10306;DHT22;5198;52.382;9.020;2023-05-07T13:48:45;19.20;99.90
10306;DHT22;5198;52.382;9.020;2023-05-07T13:52:50;19.20;99.90
10306;DHT22;5198;52.382;9.020;2023-05-07T13:56:53;19.20;99.90
10306;DHT22;5198;52.382;9.020;2023-05-07T14:00:56;19.20;99.90
10306;DHT22;5198;52.382;9.020;2023-05-07T14:04:59;19.20;99.90
10306;DHT22;5198;52.382;9.020;2023-05-07T14:09:03;19.30;99.90
10306;DHT22;5198;52.382;9.020;2023-05-07T14:13:06;19.40;99.90
10306;DHT22;5198;52.382;9.020;2023-05-07T14:17:09;19.40;99.90
10306;DHT22;5198;52.382;9.020;2023-05-07T14:21:13;19.40;99.90
10306;DHT22;5198;52.382;9.020;2023-05-07T14:25:17;19.30;99.90
10306;DHT22;5198;52.382;9.020;2023-05-07T14:29:21;19.20;99.90
10306;DHT22;5198;52.382;9.020;2023-05-07T14:33:25;19.00;99.90
10306;DHT22;5198;52.382;9.020;2023-05-07T14:37:28;18.90;99.90
10306;DHT22;5198;52.382;9.020;2023-05-07T14:41:32;18.80;99.90
10306;DHT22;5198;52.382;9.020;2023-05-07T14:45:35;18.70;99.90
10306;DHT22;5198;52.382;9.020;2023-05-07T14:49:38;18.70;99.90
10306;DHT22;5198;52.382;9.020;2023-05-07T14:53:42;18.60;99.90
10306;DHT22;5198;52.382;9.020;2023-05-07T14:57:47;18.50;99.90
10306;DHT22;5198;52.382;9.020;2023-05-07T15:01:50;18.50;99.90
10306;DHT22;5198;52.382;9.020;2023-05-07T15:05:53;18.40;99.90
10306;DHT22;5198;52.382;9.020;2023-05-07T15:09:56;18.20;99.90
10306;DHT22;5198;52.382;9.020;2023-05-07T15:14:00;18.10;99.90
10306;DHT22;5198;52.382;9.020;2023-05-07T15:18:03;18.00;99.90
10306;DHT22;5198;52.382;9.020;2023-05-07T15:22:07;18.00;99.90
10306;DHT22;5198;52.382;9.020;2023-05-07T15:26:10;17.90;99.90
10306;DHT22;5198;52.382;9.020;2023-05-07T15:30:15;17.70;99.90
10306;DHT22;5198;52.382;9.020;2023-05-07T15:34:18;17.70;99.90
10306;DHT22;5198;52.382;9.020;2023-05-07T15:38:21;17.70;99.90
10306;DHT22;5198;52.382;9.020;2023-05-07T15:42:24;17.60;99.90
10306;DHT22;5198;52.382;9.020;2023-05-07T15:46:29;17.50;99.90
10306;DHT22;5198;52.382;9.020;2023-05-07T15:50:32;17.40;99.90
10306;DHT22;5198;52.382;9.020;2023-05-07T15:54:35;17.30;99.90
10306;DHT22;5198;52.382;9.020;2023-05-07T15:58:39;17.30;99.90
10306;DHT22;5198;52.382;9.020;2023-05-07T16:02:44;17.20;99.90
10306;DHT22;5198;52.382;9.020;2023-05-07T16:06:47;17.20;99.90
10306;DHT22;5198;52.382;9.020;2023-05-07T16:10:50;17.20;99.90
10306;DHT22;5198;52.382;9.020;2023-05-07T16:14:53;17.30;99.90
10306;DHT22;5198;52.382;9.020;2023-05-07T16:18:58;17.30;99.90
10306;DHT22;5198;52.382;9.020;2023-05-07T16:23:01;17.30;99.90
10306;DHT22;5198;52.382;9.020;2023-05-07T16:27:04;17.40;99.90
10306;DHT22;5198;52.382;9.020;2023-05-07T16:31:08;17.50;99.90
10306;DHT22;5198;52.382;9.020;2023-05-07T16:35:13;17.60;99.90
10306;DHT22;5198;52.382;9.020;2023-05-07T16:39:16;17.60;99.90
10306;DHT22;5198;52.382;9.020;2023-05-07T16:43:19;17.60;99.90
10306;DHT22;5198;52.382;9.020;2023-05-07T16:47:22;17.60;99.90
10306;DHT22;5198;52.382;9.020;2023-05-07T16:51:26;17.50;99.90
10306;DHT22;5198;52.382;9.020;2023-05-07T16:55:30;17.30;99.90
10306;DHT22;5198;52.382;9.020;2023-05-07T16:59:38;17.30;99.90
10306;DHT22;5198;52.382;9.020;2023-05-07T17:03:41;17.20;99.90
10306;DHT22;5198;52.382;9.020;2023-05-07T17:07:46;17.10;99.90
10306;DHT22;5198;52.382;9.020;2023-05-07T17:11:49;17.00;99.90
10306;DHT22;5198;52.382;9.020;2023-05-07T17:15:52;16.80;99.90
10306;DHT22;5198;52.382;9.020;2023-05-07T17:19:55;16.70;99.90
10306;DHT22;5198;52.382;9.020;2023-05-07T17:24:00;16.50;99.90
10306;DHT22;5198;52.382;9.020;2023-05-07T17:28:04;16.40;99.90
10306;DHT22;5198;52.382;9.020;2023-05-07T17:32:07;16.20;99.90
10306;DHT22;5198;52.382;9.020;2023-05-07T17:36:10;15.90;99.90
10306;DHT22;5198;52.382;9.020;2023-05-07T17:40:15;15.90;99.90
10306;DHT22;5198;52.382;9.020;2023-05-07T17:44:18;15.70;99.90
10306;DHT22;5198;52.382;9.020;2023-05-07T17:48:22;15.70;99.90
10306;DHT22;5198;52.382;9.020;2023-05-07T17:52:25;15.60;99.90
10306;DHT22;5198;52.382;9.020;2023-05-07T17:56:30;15.50;99.90
10306;DHT22;5198;52.382;9.020;2023-05-07T18:00:33;15.40;99.90
10306;DHT22;5198;52.382;9.020;2023-05-07T18:04:36;15.30;99.90
10306;DHT22;5198;52.382;9.020;2023-05-07T18:08:46;15.20;99.90
10306;DHT22;5198;52.382;9.020;2023-05-07T18:12:51;15.10;99.90
10306;DHT22;5198;52.382;9.020;2023-05-07T18:16:54;15.10;99.90
10306;DHT22;5198;52.382;9.020;2023-05-07T18:21:06;15.00;99.90
10306;DHT22;5198;52.382;9.020;2023-05-07T18:25:11;14.90;99.90
10306;DHT22;5198;52.382;9.020;2023-05-07T18:29:16;14.80;99.90
10306;DHT22;5198;52.382;9.020;2023-05-07T18:33:19;14.70;99.90
10306;DHT22;5198;52.382;9.020;2023-05-07T18:37:22;14.70;99.90
10306;DHT22;5198;52.382;9.020;2023-05-07T18:41:27;14.50;99.90
10306;DHT22;5198;52.382;9.020;2023-05-07T18:45:32;14.50;99.90
10306;DHT22;5198;52.382;9.020;2023-05-07T18:49:35;14.40;99.90
10306;DHT22;5198;52.382;9.020;2023-05-07T18:53:39;14.30;99.90
10306;DHT22;5198;52.382;9.020;2023-05-07T18:57:43;14.20;99.90
10306;DHT22;5198;52.382;9.020;2023-05-07T19:01:48;14.10;99.90
10306;DHT22;5198;52.382;9.020;2023-05-07T19:05:51;14.00;99.90
10306;DHT22;5198;52.382;9.020;2023-05-07T19:09:55;13.90;99.90
10306;DHT22;5198;52.382;9.020;2023-05-07T19:14:06;13.90;99.90
10306;DHT22;5198;52.382;9.020;2023-05-07T19:18:13;13.80;99.90
10306;DHT22;5198;52.382;9.020;2023-05-07T19:22:16;13.70;99.90
10306;DHT22;5198;52.382;9.020;2023-05-07T19:26:19;13.60;99.90
10306;DHT22;5198;52.382;9.020;2023-05-07T19:30:22;13.50;99.90
10306;DHT22;5198;52.382;9.020;2023-05-07T19:34:27;13.50;99.90
10306;DHT22;5198;52.382;9.020;2023-05-07T19:38:31;13.40;99.90
10306;DHT22;5198;52.382;9.020;2023-05-07T19:42:35;13.40;99.90
10306;DHT22;5198;52.382;9.020;2023-05-07T19:46:38;13.30;99.90
10306;DHT22;5198;52.382;9.020;2023-05-07T19:50:48;13.20;99.90
10306;DHT22;5198;52.382;9.020;2023-05-07T19:54:52;13.20;99.90
10306;DHT22;5198;52.382;9.020;2023-05-07T19:58:55;13.10;99.90
10306;DHT22;5198;52.382;9.020;2023-05-07T20:02:59;13.10;99.90
10306;DHT22;5198;52.382;9.020;2023-05-07T20:07:04;13.00;99.90
10306;DHT22;5198;52.382;9.020;2023-05-07T20:11:07;12.90;99.90
10306;DHT22;5198;52.382;9.020;2023-05-07T20:15:12;12.90;99.90
10306;DHT22;5198;52.382;9.020;2023-05-07T20:19:15;12.80;99.90
10306;DHT22;5198;52.382;9.020;2023-05-07T20:23:20;12.80;99.90
10306;DHT22;5198;52.382;9.020;2023-05-07T20:27:24;12.70;99.90
10306;DHT22;5198;52.382;9.020;2023-05-07T20:31:27;12.70;99.90
10306;DHT22;5198;52.382;9.020;2023-05-07T20:35:33;12.60;99.90
10306;DHT22;5198;52.382;9.020;2023-05-07T20:39:38;12.60;99.90
10306;DHT22;5198;52.382;9.020;2023-05-07T20:43:42;12.50;99.90
10306;DHT22;5198;52.382;9.020;2023-05-07T20:47:46;12.50;99.90
10306;DHT22;5198;52.382;9.020;2023-05-07T20:51:49;12.50;99.90
10306;DHT22;5198;52.382;9.020;2023-05-07T20:55:53;12.40;99.90
10306;DHT22;5198;52.382;9.020;2023-05-07T20:59:57;12.40;99.90
10306;DHT22;5198;52.382;9.020;2023-05-07T21:04:00;12.30;99.90
10306;DHT22;5198;52.382;9.020;2023-05-07T21:08:03;12.30;99.90
10306;DHT22;5198;52.382;9.020;2023-05-07T21:12:08;12.30;99.90
10306;DHT22;5198;52.382;9.020;2023-05-07T21:16:11;12.20;99.90
10306;DHT22;5198;52.382;9.020;2023-05-07T21:20:14;12.20;99.90
10306;DHT22;5198;52.382;9.020;2023-05-07T21:24:17;12.20;99.90
10306;DHT22;5198;52.382;9.020;2023-05-07T21:28:21;12.20;99.90
10306;DHT22;5198;52.382;9.020;2023-05-07T21:32:24;12.10;99.90
10306;DHT22;5198;52.382;9.020;2023-05-07T21:36:27;12.10;99.90
10306;DHT22;5198;52.382;9.020;2023-05-07T21:40:30;12.00;99.90
10306;DHT22;5198;52.382;9.020;2023-05-07T21:44:35;12.00;99.90
10306;DHT22;5198;52.382;9.020;2023-05-07T21:48:38;12.00;99.90
10306;DHT22;5198;52.382;9.020;2023-05-07T21:52:41;11.90;99.90
10306;DHT22;5198;52.382;9.020;2023-05-07T21:56:44;11.90;99.90
10306;DHT22;5198;52.382;9.020;2023-05-07T22:00:51;11.90;99.90
10306;DHT22;5198;52.382;9.020;2023-05-07T22:04:54;11.90;99.90
10306;DHT22;5198;52.382;9.020;2023-05-07T22:08:57;11.90;99.90
10306;DHT22;5198;52.382;9.020;2023-05-07T22:13:00;11.80;99.90
10306;DHT22;5198;52.382;9.020;2023-05-07T22:17:04;11.80;99.90
10306;DHT22;5198;52.382;9.020;2023-05-07T22:21:07;11.80;99.90
10306;DHT22;5198;52.382;9.020;2023-05-07T22:25:10;11.70;99.90
10306;DHT22;5198;52.382;9.020;2023-05-07T22:29:13;11.70;99.90
10306;DHT22;5198;52.382;9.020;2023-05-07T22:33:18;11.60;99.90
10306;DHT22;5198;52.382;9.020;2023-05-07T22:37:21;11.60;99.90
10306;DHT22;5198;52.382;9.020;2023-05-07T22:41:27;11.50;99.90
10306;DHT22;5198;52.382;9.020;2023-05-07T22:45:30;11.50;99.90
10306;DHT22;5198;52.382;9.020;2023-05-07T22:49:34;11.40;99.90
10306;DHT22;5198;52.382;9.020;2023-05-07T22:57:41;11.40;99.90
10306;DHT22;5198;52.382;9.020;2023-05-07T23:01:44;11.30;99.90
10306;DHT22;5198;52.382;9.020;2023-05-07T23:05:49;11.30;99.90
10306;DHT22;5198;52.382;9.020;2023-05-07T23:09:52;11.30;99.90
10306;DHT22;5198;52.382;9.020;2023-05-07T23:13:55;11.20;99.90
10306;DHT22;5198;52.382;9.020;2023-05-07T23:17:57;11.20;99.90
10306;DHT22;5198;52.382;9.020;2023-05-07T23:22:02;11.10;99.90
10306;DHT22;5198;52.382;9.020;2023-05-07T23:26:05;11.10;99.90
10306;DHT22;5198;52.382;9.020;2023-05-07T23:30:08;11.10;99.90
10306;DHT22;5198;52.382;9.020;2023-05-07T23:34:11;11.10;99.90
10306;DHT22;5198;52.382;9.020;2023-05-07T23:38:15;11.10;99.90
10306;DHT22;5198;52.382;9.020;2023-05-07T23:42:18;11.00;99.90
10306;DHT22;5198;52.382;9.020;2023-05-07T23:46:22;11.00;99.90
10306;DHT22;5198;52.382;9.020;2023-05-07T23:50:25;10.90;99.90
10306;DHT22;5198;52.382;9.020;2023-05-07T23:54:29;10.90;99.90
10306;DHT22;5198;52.382;9.020;2023-05-07T23:58:32;10.90;99.90
